createdAt,value
2018-02-23T00:00:44.844Z,4.00
2018-02-23T00:01:44.856Z,4.00
2018-02-23T00:02:44.870Z,4.00
2018-02-23T00:03:44.882Z,4.00
2018-02-23T00:04:44.896Z,4.00
2018-02-23T00:05:44.909Z,4.00
2018-02-23T00:06:44.922Z,4.00
2018-02-23T00:07:44.938Z,4.00
2018-02-23T00:08:45.050Z,4.00
2018-02-23T00:09:44.964Z,4.00
2018-02-23T00:10:44.976Z,4.00
2018-02-23T00:11:44.989Z,4.00
2018-02-23T00:12:45.003Z,4.00
2018-02-23T00:13:45.016Z,4.00
2018-02-23T00:14:45.029Z,4.00
2018-02-23T00:15:45.043Z,4.00
2018-02-23T00:16:45.057Z,4.00
2018-02-23T00:17:45.069Z,4.00
2018-02-23T00:18:45.082Z,4.00
2018-02-23T00:19:45.096Z,4.00
2018-02-23T00:20:45.115Z,4.00
2018-02-23T00:21:45.122Z,4.00
2018-02-23T00:22:45.136Z,4.00
2018-02-23T00:23:45.150Z,4.00
2018-02-23T00:24:45.163Z,4.00
2018-02-23T00:25:45.176Z,4.00
2018-02-23T00:26:45.194Z,4.00
2018-02-23T00:27:45.204Z,4.00
2018-02-23T00:28:45.217Z,4.00
2018-02-23T00:29:45.230Z,4.00
2018-02-23T00:30:45.243Z,4.00
2018-02-23T00:31:45.256Z,4.00
2018-02-23T00:32:45.271Z,4.00
2018-02-23T00:33:45.283Z,4.00
2018-02-23T00:34:45.296Z,4.00
2018-02-23T00:35:45.310Z,4.00
2018-02-23T00:36:45.361Z,4.00
2018-02-23T00:37:45.337Z,4.00
2018-02-23T00:38:45.354Z,4.00
2018-02-23T00:39:45.363Z,4.00
2018-02-23T00:40:45.378Z,4.00
2018-02-23T00:41:45.391Z,4.00
2018-02-23T00:42:45.404Z,4.00
2018-02-23T00:43:45.417Z,4.00
2018-02-23T00:44:45.435Z,4.00
2018-02-23T00:45:45.443Z,4.00
2018-02-23T00:46:45.457Z,4.00
2018-02-23T00:47:45.472Z,4.00
2018-02-23T00:48:45.484Z,4.00
2018-02-23T00:49:45.497Z,4.00
2018-02-23T00:50:45.511Z,4.00
2018-02-23T00:51:45.525Z,4.00
2018-02-23T00:52:45.537Z,4.00
2018-02-23T00:53:45.550Z,4.00
2018-02-23T00:54:45.563Z,4.00
2018-02-23T00:55:45.577Z,4.00
2018-02-23T00:56:45.591Z,4.00
2018-02-23T00:57:45.604Z,4.00
2018-02-23T00:58:45.618Z,4.00
2018-02-23T00:59:45.631Z,4.00
2018-02-23T01:00:45.686Z,4.00
2018-02-23T01:01:45.656Z,4.00
2018-02-23T01:02:45.670Z,4.00
2018-02-23T01:03:45.684Z,4.00
2018-02-23T01:04:45.697Z,4.00
2018-02-23T01:05:45.710Z,4.00
2018-02-23T01:06:45.723Z,4.00
2018-02-23T01:07:45.736Z,4.00
2018-02-23T01:08:45.751Z,4.00
2018-02-23T01:09:45.763Z,4.00
2018-02-23T01:10:45.777Z,4.00
2018-02-23T01:11:45.791Z,4.00
2018-02-23T01:12:45.805Z,4.00
2018-02-23T01:13:45.818Z,4.00
2018-02-23T01:14:45.831Z,4.00
2018-02-23T01:15:45.845Z,4.00
2018-02-23T01:16:45.859Z,4.00
2018-02-23T01:17:45.873Z,4.00
2018-02-23T01:18:45.885Z,4.00
2018-02-23T01:19:45.899Z,4.00
2018-02-23T01:20:45.912Z,4.00
2018-02-23T01:21:45.926Z,4.00
2018-02-23T01:22:45.939Z,4.00
2018-02-23T01:23:45.953Z,4.00
2018-02-23T01:24:45.967Z,4.00
2018-02-23T01:25:45.982Z,4.00
2018-02-23T01:26:46.000Z,4.00
2018-02-23T01:27:46.007Z,4.00
2018-02-23T01:28:46.021Z,4.00
2018-02-23T01:29:46.034Z,4.00
2018-02-23T01:30:46.048Z,4.00
2018-02-23T01:31:46.062Z,4.00
2018-02-23T01:32:46.075Z,4.00
2018-02-23T01:33:46.088Z,4.00
2018-02-23T01:34:46.102Z,4.00
2018-02-23T01:35:46.116Z,4.00
2018-02-23T01:36:46.129Z,4.00
2018-02-23T01:37:46.142Z,4.00
2018-02-23T01:38:46.156Z,4.00
2018-02-23T01:39:46.171Z,4.00
2018-02-23T01:40:46.183Z,4.00
2018-02-23T01:41:46.196Z,4.00
2018-02-23T01:42:46.210Z,4.00
2018-02-23T01:43:46.224Z,4.00
2018-02-23T01:44:46.238Z,4.00
2018-02-23T01:45:46.250Z,4.00
2018-02-23T01:46:46.265Z,4.00
2018-02-23T01:47:46.278Z,4.00
2018-02-23T01:48:46.292Z,4.00
2018-02-23T01:49:46.306Z,4.00
2018-02-23T01:50:46.319Z,4.00
2018-02-23T01:51:46.335Z,4.00
2018-02-23T01:52:46.346Z,4.00
2018-02-23T01:53:46.361Z,4.00
2018-02-23T01:54:46.410Z,4.00
2018-02-23T01:55:46.386Z,4.00
2018-02-23T01:56:46.400Z,4.00
2018-02-23T01:57:46.413Z,4.00
2018-02-23T01:58:46.430Z,4.00
2018-02-23T01:59:46.441Z,4.00
2018-02-23T02:00:46.454Z,4.00
2018-02-23T02:01:46.467Z,4.00
2018-02-23T02:02:46.482Z,4.00
2018-02-23T02:03:46.495Z,4.00
2018-02-23T02:04:46.507Z,4.00
2018-02-23T02:05:46.521Z,4.00
2018-02-23T02:06:46.535Z,4.00
2018-02-23T02:07:46.548Z,4.00
2018-02-23T02:08:46.562Z,4.00
2018-02-23T02:09:46.578Z,4.00
2018-02-23T02:10:46.589Z,4.00
2018-02-23T02:11:46.603Z,4.00
2018-02-23T02:12:46.618Z,4.00
2018-02-23T02:13:46.630Z,4.00
2018-02-23T02:14:46.643Z,4.00
2018-02-23T02:15:46.657Z,4.00
2018-02-23T02:16:46.672Z,4.00
2018-02-23T02:17:46.684Z,4.00
2018-02-23T02:18:46.697Z,4.00
2018-02-23T02:19:46.714Z,4.00
2018-02-23T02:20:46.725Z,4.00
2018-02-23T02:21:46.738Z,4.00
2018-02-23T02:22:46.752Z,4.00
2018-02-23T02:23:46.765Z,4.00
2018-02-23T02:24:46.820Z,4.00
2018-02-23T02:25:46.791Z,4.00
2018-02-23T02:26:46.806Z,4.00
2018-02-23T02:27:46.820Z,4.00
2018-02-23T02:28:46.834Z,4.00
2018-02-23T02:29:46.848Z,4.00
2018-02-23T02:30:47.215Z,4.00
2018-02-23T02:31:46.873Z,4.00
2018-02-23T02:32:46.886Z,4.00
2018-02-23T02:33:46.900Z,4.00
2018-02-23T02:34:46.914Z,4.00
2018-02-23T02:35:46.927Z,4.00
2018-02-23T02:36:46.941Z,4.00
2018-02-23T02:37:46.954Z,4.00
2018-02-23T02:38:46.967Z,4.00
2018-02-23T02:39:46.981Z,4.00
2018-02-23T02:40:46.996Z,4.00
2018-02-23T02:41:47.008Z,4.00
2018-02-23T02:42:47.021Z,4.00
2018-02-23T02:43:47.035Z,8.00
2018-02-23T02:44:47.049Z,4.00
2018-02-23T02:45:47.061Z,4.00
2018-02-23T02:46:47.075Z,4.00
2018-02-23T02:47:47.090Z,4.00
2018-02-23T02:48:47.101Z,4.00
2018-02-23T02:49:47.115Z,4.00
2018-02-23T02:50:47.127Z,4.00
2018-02-23T02:51:47.143Z,4.00
2018-02-23T02:52:47.156Z,4.00
2018-02-23T02:53:47.167Z,4.00
2018-02-23T02:54:47.182Z,4.00
2018-02-23T02:55:47.195Z,4.00
2018-02-23T02:56:47.209Z,4.00
2018-02-23T02:57:47.223Z,4.00
2018-02-23T02:58:47.235Z,4.00
2018-02-23T02:59:47.249Z,4.00
2018-02-23T03:00:47.272Z,4.00
2018-02-23T03:01:47.275Z,4.00
2018-02-23T03:02:47.290Z,4.00
2018-02-23T03:03:47.303Z,4.00
2018-02-23T03:04:47.317Z,4.00
2018-02-23T03:05:47.332Z,4.00
2018-02-23T03:06:47.342Z,4.00
2018-02-23T03:07:47.362Z,4.00
2018-02-23T03:08:47.368Z,4.00
2018-02-23T03:09:47.382Z,4.00
2018-02-23T03:10:47.397Z,4.00
2018-02-23T03:11:47.412Z,4.00
2018-02-23T03:12:47.424Z,4.00
2018-02-23T03:13:47.436Z,8.00
2018-02-23T03:14:47.450Z,4.00
2018-02-23T03:15:47.464Z,4.00
2018-02-23T03:16:47.478Z,4.00
2018-02-23T03:17:47.491Z,4.00
2018-02-23T03:18:47.503Z,4.00
2018-02-23T03:19:47.516Z,4.00
2018-02-23T03:20:47.531Z,4.00
2018-02-23T03:21:47.542Z,4.00
2018-02-23T03:22:47.558Z,4.00
2018-02-23T03:23:47.570Z,4.00
2018-02-23T03:24:47.584Z,4.00
2018-02-23T03:25:47.597Z,4.00
2018-02-23T03:26:47.636Z,4.00
2018-02-23T03:27:47.624Z,4.00
2018-02-23T03:28:47.638Z,4.00
2018-02-23T03:29:47.650Z,4.00
2018-02-23T03:30:47.668Z,4.00
2018-02-23T03:31:47.677Z,4.00
2018-02-23T03:32:47.691Z,4.00
2018-02-23T03:33:47.703Z,4.00
2018-02-23T03:34:47.716Z,4.00
2018-02-23T03:35:47.733Z,4.00
2018-02-23T03:36:47.743Z,4.00
2018-02-23T03:37:47.757Z,4.00
2018-02-23T03:38:47.770Z,4.00
2018-02-23T03:39:47.783Z,4.00
2018-02-23T03:40:47.797Z,4.00
2018-02-23T03:41:47.810Z,4.00
2018-02-23T03:42:47.823Z,4.00
2018-02-23T03:43:47.837Z,4.00
2018-02-23T03:44:47.850Z,4.00
2018-02-23T03:45:47.863Z,4.00
2018-02-23T03:46:47.876Z,4.00
2018-02-23T03:47:47.890Z,4.00
2018-02-23T03:48:47.903Z,4.00
2018-02-23T03:49:47.916Z,4.00
2018-02-23T03:50:47.929Z,4.00
2018-02-23T03:51:47.944Z,4.00
2018-02-23T03:52:47.955Z,4.00
2018-02-23T03:53:47.971Z,4.00
2018-02-23T03:54:47.982Z,4.00
2018-02-23T03:55:47.995Z,4.00
2018-02-23T03:56:48.009Z,4.00
2018-02-23T03:57:48.021Z,4.00
2018-02-23T03:58:48.034Z,4.00
2018-02-23T03:59:48.049Z,4.00
2018-02-23T04:00:48.061Z,4.00
2018-02-23T04:01:48.072Z,4.00
2018-02-23T04:02:48.086Z,4.00
2018-02-23T04:03:48.100Z,4.00
2018-02-23T04:04:48.116Z,4.00
2018-02-23T04:05:48.125Z,4.00
2018-02-23T04:06:48.139Z,4.00
2018-02-23T04:07:48.152Z,4.00
2018-02-23T04:08:48.165Z,4.00
2018-02-23T04:09:48.177Z,4.00
2018-02-23T04:10:48.191Z,4.00
2018-02-23T04:11:48.205Z,4.00
2018-02-23T04:12:48.216Z,4.00
2018-02-23T04:13:48.230Z,4.00
2018-02-23T04:14:48.242Z,4.00
2018-02-23T04:15:48.255Z,4.00
2018-02-23T04:16:48.269Z,4.00
2018-02-23T04:17:48.282Z,4.00
2018-02-23T04:18:48.294Z,4.00
2018-02-23T04:19:48.307Z,4.00
2018-02-23T04:20:48.321Z,4.00
2018-02-23T04:21:48.333Z,4.00
2018-02-23T04:22:48.346Z,4.00
2018-02-23T04:23:48.358Z,4.00
2018-02-23T04:24:48.372Z,4.00
2018-02-23T04:25:48.384Z,4.00
2018-02-23T04:26:48.398Z,4.00
2018-02-23T04:27:48.411Z,4.00
2018-02-23T04:28:48.423Z,4.00
2018-02-23T04:29:48.435Z,4.00
2018-02-23T04:30:48.448Z,4.00
2018-02-23T04:31:48.466Z,4.00
2018-02-23T04:32:48.474Z,4.00
2018-02-23T04:33:48.487Z,4.00
2018-02-23T04:34:48.500Z,4.00
2018-02-23T04:35:48.512Z,4.00
2018-02-23T04:36:48.525Z,4.00
2018-02-23T04:37:48.537Z,4.00
2018-02-23T04:38:48.551Z,4.00
2018-02-23T04:39:48.564Z,4.00
2018-02-23T04:40:48.577Z,4.00
2018-02-23T04:41:48.589Z,4.00
2018-02-23T04:42:48.602Z,4.00
2018-02-23T04:43:48.615Z,4.00
2018-02-23T04:44:48.628Z,4.00
2018-02-23T04:45:48.640Z,4.00
2018-02-23T04:46:48.654Z,4.00
2018-02-23T04:47:48.666Z,4.00
2018-02-23T04:48:48.679Z,4.00
2018-02-23T04:49:48.695Z,4.00
2018-02-23T04:50:48.705Z,4.00
2018-02-23T04:51:48.718Z,4.00
2018-02-23T04:52:48.731Z,4.00
2018-02-23T04:53:48.743Z,4.00
2018-02-23T04:54:48.756Z,4.00
2018-02-23T04:55:48.769Z,4.00
2018-02-23T04:56:48.782Z,4.00
2018-02-23T04:57:48.795Z,4.00
2018-02-23T04:58:48.808Z,4.00
2018-02-23T04:59:48.820Z,4.00
2018-02-23T05:00:48.834Z,4.00
2018-02-23T05:01:48.845Z,4.00
2018-02-23T05:02:48.859Z,4.00
2018-02-23T05:03:48.872Z,4.00
2018-02-23T05:04:48.883Z,4.00
2018-02-23T05:05:48.896Z,4.00
2018-02-23T05:06:48.910Z,4.00
2018-02-23T05:07:48.923Z,4.00
2018-02-23T05:08:48.935Z,4.00
2018-02-23T05:09:48.947Z,4.00
2018-02-23T05:10:49.020Z,4.00
2018-02-23T05:11:48.973Z,4.00
2018-02-23T05:12:48.984Z,4.00
2018-02-23T05:13:48.999Z,4.00
2018-02-23T05:14:49.010Z,4.00
2018-02-23T05:15:49.023Z,4.00
2018-02-23T05:16:49.038Z,4.00
2018-02-23T05:17:49.048Z,4.00
2018-02-23T05:18:49.061Z,4.00
2018-02-23T05:19:49.074Z,4.00
2018-02-23T05:20:49.088Z,4.00
2018-02-23T05:21:49.098Z,4.00
2018-02-23T05:22:49.112Z,4.00
2018-02-23T05:23:49.127Z,4.00
2018-02-23T05:24:49.146Z,4.00
2018-02-23T05:25:49.150Z,4.00
2018-02-23T05:26:49.161Z,4.00
2018-02-23T05:27:49.175Z,4.00
2018-02-23T05:28:49.187Z,4.00
2018-02-23T05:29:49.199Z,4.00
2018-02-23T05:30:49.212Z,4.00
2018-02-23T05:31:49.225Z,4.00
2018-02-23T05:32:49.238Z,4.00
2018-02-23T05:33:49.250Z,4.00
2018-02-23T05:34:49.263Z,4.00
2018-02-23T05:35:49.276Z,4.00
2018-02-23T05:36:49.287Z,4.00
2018-02-23T05:37:49.299Z,4.00
2018-02-23T05:38:49.312Z,4.00
2018-02-23T05:39:49.325Z,4.00
2018-02-23T05:40:49.337Z,4.00
2018-02-23T05:41:49.350Z,4.00
2018-02-23T05:42:49.362Z,4.00
2018-02-23T05:43:49.374Z,4.00
2018-02-23T05:44:49.387Z,4.00
2018-02-23T05:45:49.402Z,4.00
2018-02-23T05:46:49.413Z,4.00
2018-02-23T05:47:49.424Z,4.00
2018-02-23T05:48:49.437Z,4.00
2018-02-23T05:49:49.449Z,4.00
2018-02-23T05:50:49.514Z,4.00
2018-02-23T05:51:49.475Z,4.00
2018-02-23T05:52:49.488Z,4.00
2018-02-23T05:53:49.499Z,4.00
2018-02-23T05:54:49.512Z,8.00
2018-02-23T05:55:49.526Z,8.00
2018-02-23T05:56:49.541Z,8.00
2018-02-23T05:57:49.551Z,4.00
2018-02-23T05:58:49.562Z,4.00
2018-02-23T05:59:49.582Z,4.00
2018-02-23T06:00:49.588Z,8.00
2018-02-23T06:01:49.599Z,4.00
2018-02-23T06:02:49.613Z,8.00
2018-02-23T06:03:49.626Z,8.00
2018-02-23T06:04:49.646Z,8.00
2018-02-23T06:05:49.650Z,8.00
2018-02-23T06:06:49.666Z,8.00
2018-02-23T06:07:49.676Z,12.00
2018-02-23T06:08:49.688Z,12.00
2018-02-23T06:09:49.700Z,8.00
2018-02-23T06:10:49.712Z,12.00
2018-02-23T06:11:49.725Z,16.00
2018-02-23T06:12:49.738Z,20.00
2018-02-23T06:13:49.752Z,20.00
2018-02-23T06:14:49.763Z,24.00
2018-02-23T06:15:49.775Z,24.00
2018-02-23T06:16:49.788Z,32.00
2018-02-23T06:17:49.800Z,40.00
2018-02-23T06:18:49.814Z,40.00
2018-02-23T06:19:49.826Z,52.00
2018-02-23T06:20:49.838Z,52.00
2018-02-23T06:21:49.850Z,64.00
2018-02-23T06:22:49.863Z,72.00
2018-02-23T06:23:49.875Z,80.00
2018-02-23T06:24:49.888Z,88.00
2018-02-23T06:25:49.899Z,100.00
2018-02-23T06:26:49.913Z,112.00
2018-02-23T06:27:49.926Z,120.00
2018-02-23T06:28:49.938Z,136.00
2018-02-23T06:29:49.950Z,148.00
2018-02-23T06:30:49.963Z,164.00
2018-02-23T06:31:49.977Z,176.00
2018-02-23T06:32:49.988Z,192.00
2018-02-23T06:33:49.999Z,208.00
2018-02-23T06:34:50.019Z,224.00
2018-02-23T06:35:50.028Z,240.00
2018-02-23T06:36:50.039Z,260.00
2018-02-23T06:37:50.049Z,280.00
2018-02-23T06:38:50.062Z,300.00
2018-02-23T06:39:50.075Z,316.00
2018-02-23T06:40:50.088Z,336.00
2018-02-23T06:41:50.101Z,356.00
2018-02-23T06:42:50.113Z,376.00
2018-02-23T06:43:50.125Z,400.00
2018-02-23T06:44:50.138Z,420.00
2018-02-23T06:45:50.154Z,444.00
2018-02-23T06:46:50.163Z,464.00
2018-02-23T06:47:50.176Z,488.00
2018-02-23T06:48:50.188Z,512.00
2018-02-23T06:49:50.200Z,532.00
2018-02-23T06:50:50.212Z,552.00
2018-02-23T06:51:50.225Z,580.00
2018-02-23T06:52:50.238Z,600.00
2018-02-23T06:53:50.263Z,620.00
2018-02-23T06:54:50.263Z,644.00
2018-02-23T06:55:50.276Z,668.00
2018-02-23T06:56:50.290Z,692.00
2018-02-23T06:57:50.300Z,712.00
2018-02-23T06:58:50.312Z,736.00
2018-02-23T06:59:50.324Z,756.00
2018-02-23T07:00:50.338Z,788.00
2018-02-23T07:01:50.351Z,804.00
2018-02-23T07:02:50.364Z,828.00
2018-02-23T07:03:50.407Z,848.00
2018-02-23T07:04:50.389Z,872.00
2018-02-23T07:05:50.458Z,900.00
2018-02-23T07:06:50.417Z,920.00
2018-02-23T07:07:50.425Z,948.00
2018-02-23T07:08:50.440Z,976.00
2018-02-23T07:09:50.452Z,996.00
2018-02-23T07:10:50.520Z,1020.00
2018-02-23T07:11:50.476Z,1044.00
2018-02-23T07:12:50.489Z,1068.00
2018-02-23T07:13:50.500Z,1088.00
2018-02-23T07:14:50.513Z,1108.00
2018-02-23T07:15:50.526Z,1132.00
2018-02-23T07:16:50.539Z,1156.00
2018-02-23T07:17:50.551Z,1188.00
2018-02-23T07:18:50.564Z,1204.00
2018-02-23T07:19:50.576Z,1224.00
2018-02-23T07:20:50.589Z,1256.00
2018-02-23T07:21:50.602Z,1280.00
2018-02-23T07:22:50.614Z,1308.00
2018-02-23T07:23:50.627Z,1328.00
2018-02-23T07:24:50.648Z,1352.00
2018-02-23T07:25:50.651Z,1392.00
2018-02-23T07:26:50.665Z,1404.00
2018-02-23T07:27:50.678Z,1420.00
2018-02-23T07:28:50.691Z,1440.00
2018-02-23T07:29:50.702Z,1460.00
2018-02-23T07:30:50.716Z,1484.00
2018-02-23T07:31:50.778Z,1504.00
2018-02-23T07:32:50.742Z,1528.00
2018-02-23T07:33:50.784Z,1556.00
2018-02-23T07:34:50.766Z,1596.00
2018-02-23T07:35:50.779Z,1624.00
2018-02-23T07:36:50.792Z,1652.00
2018-02-23T07:37:50.804Z,1676.00
2018-02-23T07:38:50.817Z,1700.00
2018-02-23T07:39:50.831Z,1740.00
2018-02-23T07:40:50.843Z,1776.00
2018-02-23T07:41:50.855Z,1888.00
2018-02-23T07:42:50.867Z,1984.00
2018-02-23T07:43:50.881Z,1916.00
2018-02-23T07:44:50.894Z,1876.00
2018-02-23T07:45:50.906Z,1880.00
2018-02-23T07:46:50.919Z,1908.00
2018-02-23T07:47:50.932Z,1924.00
2018-02-23T07:48:50.945Z,1964.00
2018-02-23T07:49:50.956Z,2012.00
2018-02-23T07:50:50.970Z,2048.00
2018-02-23T07:51:50.983Z,2196.00
2018-02-23T07:52:50.997Z,2428.00
2018-02-23T07:53:51.009Z,2488.00
2018-02-23T07:54:51.022Z,2576.00
2018-02-23T07:55:51.034Z,3104.00
2018-02-23T07:56:51.048Z,3180.00
2018-02-23T07:57:51.060Z,2692.00
2018-02-23T07:58:51.073Z,2584.00
2018-02-23T07:59:51.085Z,3448.00
2018-02-23T08:00:51.099Z,4160.00
2018-02-23T08:01:51.111Z,3504.00
2018-02-23T08:02:51.124Z,2704.00
2018-02-23T08:03:51.140Z,2492.00
2018-02-23T08:04:51.151Z,2408.00
2018-02-23T08:05:51.165Z,2408.00
2018-02-23T08:06:51.176Z,2416.00
2018-02-23T08:07:51.200Z,2432.00
2018-02-23T08:08:51.206Z,2440.00
2018-02-23T08:09:51.215Z,2480.00
2018-02-23T08:10:51.228Z,2504.00
2018-02-23T08:11:51.242Z,2508.00
2018-02-23T08:12:51.255Z,2544.00
2018-02-23T08:13:51.267Z,2580.00
2018-02-23T08:14:51.286Z,2580.00
2018-02-23T08:15:51.294Z,2608.00
2018-02-23T08:16:51.311Z,2640.00
2018-02-23T08:17:51.320Z,2660.00
2018-02-23T08:18:51.333Z,2684.00
2018-02-23T08:19:51.347Z,2700.00
2018-02-23T08:20:51.360Z,2724.00
2018-02-23T08:21:51.374Z,2772.00
2018-02-23T08:22:51.407Z,2836.00
2018-02-23T08:23:51.399Z,2824.00
2018-02-23T08:24:51.412Z,2840.00
2018-02-23T08:25:51.426Z,2928.00
2018-02-23T08:26:51.448Z,2804.00
2018-02-23T08:27:51.454Z,3052.00
2018-02-23T08:28:51.466Z,3120.00
2018-02-23T08:29:51.477Z,3556.00
2018-02-23T08:30:51.491Z,3132.00
2018-02-23T08:31:51.505Z,3044.00
2018-02-23T08:32:51.521Z,2840.00
2018-02-23T08:33:51.532Z,2744.00
2018-02-23T08:34:51.544Z,2768.00
2018-02-23T08:35:51.557Z,2780.00
2018-02-23T08:36:51.571Z,2804.00
2018-02-23T08:37:51.583Z,2804.00
2018-02-23T08:38:51.598Z,2860.00
2018-02-23T08:39:51.611Z,2880.00
2018-02-23T08:40:51.625Z,2840.00
2018-02-23T08:41:51.639Z,2940.00
2018-02-23T08:42:51.651Z,2836.00
2018-02-23T08:43:51.669Z,2892.00
2018-02-23T08:44:51.678Z,2932.00
2018-02-23T08:45:51.691Z,2948.00
2018-02-23T08:46:51.704Z,2996.00
2018-02-23T08:47:51.718Z,3024.00
2018-02-23T08:48:51.732Z,3084.00
2018-02-23T08:49:51.745Z,3132.00
2018-02-23T08:50:51.758Z,3168.00
2018-02-23T08:51:51.772Z,3152.00
2018-02-23T08:52:51.786Z,3124.00
2018-02-23T08:53:51.799Z,3100.00
2018-02-23T08:54:51.813Z,3036.00
2018-02-23T08:55:52.079Z,3012.00
2018-02-23T08:56:51.840Z,3056.00
2018-02-23T08:57:51.853Z,3124.00
2018-02-23T08:58:51.867Z,3212.00
2018-02-23T08:59:51.881Z,3276.00
2018-02-23T09:00:51.896Z,3396.00
2018-02-23T09:01:51.908Z,3448.00
2018-02-23T09:02:51.926Z,3516.00
2018-02-23T09:03:51.935Z,3604.00
2018-02-23T09:04:51.949Z,3744.00
2018-02-23T09:05:51.962Z,3904.00
2018-02-23T09:06:51.980Z,4056.00
2018-02-23T09:07:51.990Z,4088.00
2018-02-23T09:08:52.004Z,4156.00
2018-02-23T09:09:52.016Z,4264.00
2018-02-23T09:10:52.030Z,4296.00
2018-02-23T09:11:52.044Z,4220.00
2018-02-23T09:12:52.058Z,4064.00
2018-02-23T09:13:52.071Z,4932.00
2018-02-23T09:14:52.085Z,3716.00
2018-02-23T09:15:52.099Z,4916.00
2018-02-23T09:16:52.113Z,3624.00
2018-02-23T09:17:52.126Z,5136.00
2018-02-23T09:18:52.142Z,3768.00
2018-02-23T09:19:52.155Z,3684.00
2018-02-23T09:20:52.167Z,3932.00
2018-02-23T09:21:52.182Z,4568.00
2018-02-23T09:22:52.197Z,3724.00
2018-02-23T09:23:52.211Z,4356.00
2018-02-23T09:24:52.226Z,4720.00
2018-02-23T09:25:52.235Z,3552.00
2018-02-23T09:26:52.250Z,4380.00
2018-02-23T09:27:52.264Z,3952.00
2018-02-23T09:28:52.278Z,4480.00
2018-02-23T09:29:52.292Z,4404.00
2018-02-23T09:30:52.304Z,3176.00
2018-02-23T09:31:52.319Z,4496.00
2018-02-23T09:32:52.333Z,4356.00
2018-02-23T09:33:52.347Z,3468.00
2018-02-23T09:34:52.360Z,2980.00
2018-02-23T09:35:52.375Z,3440.00
2018-02-23T09:36:52.388Z,3112.00
2018-02-23T09:37:52.401Z,2952.00
2018-02-23T09:38:52.418Z,3116.00
2018-02-23T09:39:52.431Z,3440.00
2018-02-23T09:40:52.444Z,4680.00
2018-02-23T09:41:52.457Z,3552.00
2018-02-23T09:42:52.471Z,3904.00
2018-02-23T09:43:52.485Z,4524.00
2018-02-23T09:44:52.498Z,2720.00
2018-02-23T09:45:52.512Z,2708.00
2018-02-23T09:46:52.526Z,3304.00
2018-02-23T09:47:52.540Z,3428.00
2018-02-23T09:48:52.554Z,2404.00
2018-02-23T09:49:52.567Z,2860.00
2018-02-23T09:50:52.581Z,2304.00
2018-02-23T09:51:52.594Z,2968.00
2018-02-23T09:52:52.608Z,2308.00
2018-02-23T09:53:52.621Z,4744.00
2018-02-23T09:54:52.635Z,2328.00
2018-02-23T09:55:52.653Z,4912.00
2018-02-23T09:56:52.663Z,4828.00
2018-02-23T09:57:52.675Z,3424.00
2018-02-23T09:58:52.690Z,4840.00
2018-02-23T09:59:52.703Z,4688.00
2018-02-23T10:00:52.717Z,4848.00
2018-02-23T10:01:52.730Z,4916.00
2018-02-23T10:02:52.743Z,4832.00
2018-02-23T10:03:52.763Z,4988.00
2018-02-23T10:04:52.771Z,2828.00
2018-02-23T10:05:52.786Z,4448.00
2018-02-23T10:06:52.804Z,4812.00
2018-02-23T10:07:52.812Z,3400.00
2018-02-23T10:08:52.827Z,5016.00
2018-02-23T10:09:52.841Z,5064.00
2018-02-23T10:10:52.879Z,5040.00
2018-02-23T10:11:52.867Z,5072.00
2018-02-23T10:12:52.881Z,5168.00
2018-02-23T10:13:53.095Z,5224.00
2018-02-23T10:14:52.908Z,5296.00
2018-02-23T10:15:52.922Z,5280.00
2018-02-23T10:16:52.936Z,5320.00
2018-02-23T10:17:52.951Z,5304.00
2018-02-23T10:18:52.964Z,5200.00
2018-02-23T10:19:52.977Z,5244.00
2018-02-23T10:20:52.992Z,5276.00
2018-02-23T10:21:53.084Z,5324.00
2018-02-23T10:22:53.021Z,5208.00
2018-02-23T10:23:53.034Z,5184.00
2018-02-23T10:24:53.047Z,5088.00
2018-02-23T10:25:53.061Z,5208.00
2018-02-23T10:26:53.075Z,4960.00
2018-02-23T10:27:53.090Z,4972.00
2018-02-23T10:28:53.104Z,4980.00
2018-02-23T10:29:53.117Z,5028.00
2018-02-23T10:30:53.132Z,5040.00
2018-02-23T10:31:53.146Z,5008.00
2018-02-23T10:32:53.161Z,5008.00
2018-02-23T10:33:53.180Z,4996.00
2018-02-23T10:34:53.189Z,4988.00
2018-02-23T10:35:53.204Z,5008.00
2018-02-23T10:36:53.219Z,5056.00
2018-02-23T10:37:53.232Z,4908.00
2018-02-23T10:38:53.247Z,4992.00
2018-02-23T10:39:53.260Z,5036.00
2018-02-23T10:40:53.276Z,5016.00
2018-02-23T10:41:53.289Z,5004.00
2018-02-23T10:42:53.303Z,2816.00
2018-02-23T10:43:53.318Z,4964.00
2018-02-23T10:44:53.483Z,4868.00
2018-02-23T10:45:53.346Z,5444.00
2018-02-23T10:46:53.360Z,4856.00
2018-02-23T10:47:53.374Z,4276.00
2018-02-23T10:48:53.389Z,4100.00
2018-02-23T10:49:53.403Z,4932.00
2018-02-23T10:50:53.472Z,4896.00
2018-02-23T10:51:53.432Z,4936.00
2018-02-23T10:52:53.447Z,4892.00
2018-02-23T10:53:53.459Z,5000.00
2018-02-23T10:54:53.477Z,5012.00
2018-02-23T10:55:53.489Z,2416.00
2018-02-23T10:56:53.504Z,4944.00
2018-02-23T10:57:53.517Z,4960.00
2018-02-23T10:58:53.532Z,5004.00
2018-02-23T10:59:53.547Z,4952.00
2018-02-23T11:00:53.561Z,4952.00
2018-02-23T11:01:53.576Z,5044.00
2018-02-23T11:02:53.590Z,5008.00
2018-02-23T11:03:53.604Z,4888.00
2018-02-23T11:04:53.619Z,4996.00
2018-02-23T11:05:53.633Z,5008.00
2018-02-23T11:06:53.648Z,5032.00
2018-02-23T11:07:53.662Z,5052.00
2018-02-23T11:08:53.676Z,4960.00
2018-02-23T11:09:53.695Z,5056.00
2018-02-23T11:10:53.709Z,5144.00
2018-02-23T11:11:53.720Z,5000.00
2018-02-23T11:12:53.884Z,4984.00
2018-02-23T11:13:53.747Z,4992.00
2018-02-23T11:14:53.763Z,4940.00
2018-02-23T11:15:53.777Z,4936.00
2018-02-23T11:16:53.792Z,4996.00
2018-02-23T11:17:53.806Z,5020.00
2018-02-23T11:18:53.822Z,4932.00
2018-02-23T11:19:53.840Z,5000.00
2018-02-23T11:20:53.850Z,5016.00
2018-02-23T11:21:53.862Z,4956.00
2018-02-23T11:22:53.879Z,4932.00
2018-02-23T11:23:53.892Z,4908.00
2018-02-23T11:24:53.913Z,4964.00
2018-02-23T11:25:53.921Z,4956.00
2018-02-23T11:26:53.937Z,4936.00
2018-02-23T11:27:53.952Z,4868.00
2018-02-23T11:28:53.968Z,4880.00
2018-02-23T11:29:53.981Z,4832.00
2018-02-23T11:30:53.996Z,4760.00
2018-02-23T11:31:54.014Z,4832.00
2018-02-23T11:32:54.026Z,4840.00
2018-02-23T11:33:54.040Z,4780.00
2018-02-23T11:34:54.055Z,4784.00
2018-02-23T11:35:54.272Z,4776.00
2018-02-23T11:36:54.085Z,4764.00
2018-02-23T11:37:54.099Z,4792.00
2018-02-23T11:38:54.126Z,4768.00
2018-02-23T11:39:54.130Z,4724.00
2018-02-23T11:40:54.143Z,4720.00
2018-02-23T11:41:54.158Z,4664.00
2018-02-23T11:42:54.173Z,4692.00
2018-02-23T11:43:54.187Z,4724.00
2018-02-23T11:44:54.202Z,4624.00
2018-02-23T11:45:54.218Z,4568.00
2018-02-23T11:46:54.231Z,4644.00
2018-02-23T11:47:54.246Z,4664.00
2018-02-23T11:48:54.262Z,4620.00
2018-02-23T11:49:54.276Z,4604.00
2018-02-23T11:50:54.289Z,4564.00
2018-02-23T11:51:54.304Z,4628.00
2018-02-23T11:52:54.321Z,4596.00
2018-02-23T11:53:54.334Z,4556.00
2018-02-23T11:54:54.348Z,4568.00
2018-02-23T11:55:54.367Z,4608.00
2018-02-23T11:56:54.377Z,4516.00
2018-02-23T11:57:54.391Z,4640.00
2018-02-23T11:58:54.406Z,4552.00
2018-02-23T11:59:54.422Z,4560.00
2018-02-23T12:00:54.447Z,4568.00
2018-02-23T12:01:54.450Z,4572.00
2018-02-23T12:02:54.465Z,4572.00
2018-02-23T12:03:54.485Z,4612.00
2018-02-23T12:04:54.494Z,4516.00
2018-02-23T12:05:54.507Z,4448.00
2018-02-23T12:06:54.535Z,4548.00
2018-02-23T12:07:54.537Z,4536.00
2018-02-23T12:08:54.556Z,4584.00
2018-02-23T12:09:54.565Z,4476.00
2018-02-23T12:10:54.582Z,4588.00
2018-02-23T12:11:54.595Z,4472.00
2018-02-23T12:12:54.610Z,4392.00
2018-02-23T12:13:54.725Z,4520.00
2018-02-23T12:14:54.640Z,4468.00
2018-02-23T12:15:54.655Z,4480.00
2018-02-23T12:16:54.670Z,4512.00
2018-02-23T12:17:54.682Z,4432.00
2018-02-23T12:18:54.696Z,4440.00
2018-02-23T12:19:54.712Z,4404.00
2018-02-23T12:20:54.726Z,2916.00
2018-02-23T12:21:54.741Z,4252.00
2018-02-23T12:22:54.756Z,4440.00
2018-02-23T12:23:54.770Z,4436.00
2018-02-23T12:24:54.785Z,4432.00
2018-02-23T12:25:54.801Z,4484.00
2018-02-23T12:26:54.815Z,4444.00
2018-02-23T12:27:54.830Z,4420.00
2018-02-23T12:28:54.845Z,4424.00
2018-02-23T12:29:55.058Z,4360.00
2018-02-23T12:30:54.878Z,4424.00
2018-02-23T12:31:54.887Z,4424.00
2018-02-23T12:32:54.907Z,4428.00
2018-02-23T12:33:54.917Z,4412.00
2018-02-23T12:34:54.936Z,4404.00
2018-02-23T12:35:54.947Z,4412.00
2018-02-23T12:36:54.963Z,4408.00
2018-02-23T12:37:54.977Z,4396.00
2018-02-23T12:38:54.991Z,4388.00
2018-02-23T12:39:55.107Z,4408.00
2018-02-23T12:40:55.020Z,4388.00
2018-02-23T12:41:55.037Z,4356.00